createdAt,value
2018-11-02T00:02:10.928Z,2.50
2018-11-02T00:04:39.836Z,2.50
2018-11-02T00:07:08.732Z,2.50
2018-11-02T00:09:37.597Z,2.50
2018-11-02T00:12:06.836Z,2.50
2018-11-02T00:14:35.672Z,2.50
2018-11-02T00:17:04.544Z,2.50
2018-11-02T00:19:34.440Z,2.40
2018-11-02T00:22:04.485Z,2.40
2018-11-02T00:24:33.401Z,2.40
2018-11-02T00:27:02.649Z,2.40
2018-11-02T00:29:32.715Z,2.30
2018-11-02T00:32:01.726Z,2.30
2018-11-02T00:34:30.574Z,2.30
2018-11-02T00:36:59.454Z,2.30
2018-11-02T00:39:28.333Z,2.30
2018-11-02T00:41:57.212Z,2.30
2018-11-02T00:44:26.108Z,2.30
2018-11-02T00:46:54.923Z,2.30
2018-11-02T00:49:23.762Z,2.30
2018-11-02T00:51:52.643Z,2.30
2018-11-02T00:54:21.538Z,2.40
2018-11-02T00:56:50.379Z,2.40
2018-11-02T00:59:19.247Z,2.50
2018-11-02T01:01:48.141Z,2.60
2018-11-02T01:04:16.954Z,2.60
2018-11-02T01:06:45.826Z,2.60
2018-11-02T01:09:14.682Z,2.60
2018-11-02T01:11:43.579Z,2.50
2018-11-02T01:14:12.401Z,2.50
2018-11-02T01:16:41.407Z,2.50
2018-11-02T01:19:10.233Z,2.40
2018-11-02T01:21:39.033Z,2.40
2018-11-02T01:24:07.925Z,2.30
2018-11-02T01:26:36.869Z,2.30
2018-11-02T01:29:05.807Z,2.30
2018-11-02T01:31:34.685Z,2.20
2018-11-02T01:34:03.570Z,2.20
2018-11-02T01:36:32.384Z,2.20
2018-11-02T01:39:01.255Z,2.20
2018-11-02T01:41:30.123Z,2.20
2018-11-02T01:43:58.993Z,2.10
2018-11-02T01:46:27.821Z,2.10
2018-11-02T01:48:56.675Z,2.10
2018-11-02T01:51:25.528Z,2.10
2018-11-02T01:53:54.391Z,2.10
2018-11-02T01:56:23.213Z,2.10
2018-11-02T01:58:52.118Z,2.00
2018-11-02T02:01:20.993Z,2.00
2018-11-02T02:03:49.896Z,2.00
2018-11-02T02:06:18.774Z,2.00
2018-11-02T02:08:47.606Z,1.90
2018-11-02T02:11:16.505Z,1.90
2018-11-02T02:13:45.313Z,1.90
2018-11-02T02:16:14.159Z,1.90
2018-11-02T02:18:43.242Z,1.90
2018-11-02T02:21:12.054Z,1.90
2018-11-02T02:23:40.932Z,1.90
2018-11-02T02:26:09.781Z,2.00
2018-11-02T02:28:38.697Z,1.90
2018-11-02T02:31:07.511Z,1.90
2018-11-02T02:33:36.391Z,2.00
2018-11-02T02:36:05.274Z,2.00
2018-11-02T02:38:34.158Z,2.00
2018-11-02T02:41:02.985Z,2.00
2018-11-02T02:43:31.894Z,2.00
2018-11-02T02:46:00.728Z,1.90
2018-11-02T02:48:29.602Z,2.00
2018-11-02T02:50:58.436Z,2.00
2018-11-02T02:53:27.308Z,2.00
2018-11-02T02:55:56.174Z,2.00
2018-11-02T02:58:25.015Z,2.00
2018-11-02T03:00:53.894Z,2.00
2018-11-02T03:03:22.763Z,2.00
2018-11-02T03:05:51.624Z,2.10
2018-11-02T03:08:20.464Z,2.10
2018-11-02T03:10:49.593Z,2.10
2018-11-02T03:13:18.225Z,2.20
2018-11-02T03:15:47.089Z,2.20
2018-11-02T03:18:15.918Z,2.20
2018-11-02T03:20:44.793Z,2.20
2018-11-02T03:23:13.600Z,2.30
2018-11-02T03:25:42.486Z,2.30
2018-11-02T03:28:11.354Z,2.30
2018-11-02T03:30:40.304Z,2.30
2018-11-02T03:33:09.106Z,2.40
2018-11-02T03:35:37.983Z,2.40
2018-11-02T03:38:06.786Z,2.40
2018-11-02T03:40:35.623Z,2.40
2018-11-02T03:43:04.515Z,2.40
2018-11-02T03:45:33.347Z,2.40
2018-11-02T03:48:02.249Z,2.50
2018-11-02T03:50:31.115Z,2.50
2018-11-02T03:53:00.080Z,2.50
2018-11-02T03:55:28.890Z,2.60
2018-11-02T03:57:57.744Z,2.60
2018-11-02T04:00:26.660Z,2.60
2018-11-02T04:02:55.470Z,2.60
2018-11-02T04:05:24.326Z,2.60
2018-11-02T04:07:53.191Z,2.70
2018-11-02T04:10:22.025Z,2.70
2018-11-02T04:12:50.902Z,2.70
2018-11-02T04:15:19.710Z,2.70
2018-11-02T04:17:48.555Z,2.70
2018-11-02T04:20:17.371Z,2.80
2018-11-02T04:22:46.248Z,2.80
2018-11-02T04:25:15.081Z,2.80
2018-11-02T04:27:43.997Z,2.80
2018-11-02T04:30:12.892Z,2.80
2018-11-02T04:32:41.743Z,2.90
2018-11-02T04:35:10.672Z,2.90
2018-11-02T04:37:39.551Z,2.80
2018-11-02T04:40:08.824Z,2.80
2018-11-02T04:42:37.645Z,2.80
2018-11-02T04:45:06.619Z,2.80
2018-11-02T04:47:35.459Z,2.70
2018-11-02T04:50:04.740Z,2.70
2018-11-02T04:52:33.632Z,2.80
2018-11-02T04:55:02.454Z,2.80
2018-11-02T04:57:31.326Z,2.70
2018-11-02T05:00:00.144Z,2.80
2018-11-02T05:02:29.023Z,2.80
2018-11-02T05:04:57.843Z,2.80
2018-11-02T05:07:26.716Z,2.80
2018-11-02T05:09:55.588Z,2.80
2018-11-02T05:12:24.548Z,2.80
2018-11-02T05:14:53.383Z,2.90
2018-11-02T05:17:22.252Z,3.00
2018-11-02T05:19:51.127Z,3.00
2018-11-02T05:22:19.962Z,3.00
2018-11-02T05:24:48.836Z,3.00
2018-11-02T05:27:17.665Z,3.00
2018-11-02T05:29:46.533Z,3.10
2018-11-02T05:32:15.513Z,3.20
2018-11-02T05:34:44.441Z,3.30
2018-11-02T05:37:13.389Z,3.40
2018-11-02T05:39:42.270Z,3.50
2018-11-02T05:42:11.199Z,3.60
2018-11-02T05:44:40.266Z,3.80
2018-11-02T05:47:09.302Z,4.00
2018-11-02T05:49:38.184Z,4.10
2018-11-02T05:52:07.862Z,4.20
2018-11-02T05:54:36.959Z,4.20
2018-11-02T05:57:06.388Z,4.20
2018-11-02T05:59:35.479Z,4.10
2018-11-02T06:02:04.968Z,4.10
2018-11-02T06:04:33.839Z,4.10
2018-11-02T06:07:02.724Z,4.00
2018-11-02T06:09:31.632Z,4.00
2018-11-02T06:12:00.689Z,3.90
2018-11-02T06:14:32.380Z,3.90
2018-11-02T06:17:01.712Z,3.80
2018-11-02T06:19:30.665Z,3.70
2018-11-02T06:21:59.503Z,3.70
2018-11-02T06:24:33.621Z,3.60
2018-11-02T06:27:02.679Z,3.50
2018-11-02T06:29:31.579Z,3.50
2018-11-02T06:32:00.402Z,3.40
2018-11-02T06:34:29.419Z,3.40
2018-11-02T06:36:58.302Z,3.30
2018-11-02T06:39:27.121Z,3.30
2018-11-02T06:41:55.995Z,3.30
2018-11-02T06:44:24.826Z,3.30
2018-11-02T06:46:53.698Z,3.30
2018-11-02T06:49:22.557Z,3.30
2018-11-02T06:51:51.462Z,3.30
2018-11-02T06:54:20.451Z,3.30
2018-11-02T06:56:49.330Z,3.40
2018-11-02T06:59:18.559Z,3.40
2018-11-02T07:01:47.491Z,3.40
2018-11-02T07:04:16.461Z,3.50
2018-11-02T07:06:45.721Z,3.50
2018-11-02T07:09:14.885Z,3.60
2018-11-02T07:11:44.292Z,3.70
2018-11-02T07:14:13.514Z,3.80
2018-11-02T07:16:42.537Z,3.80
2018-11-02T07:19:11.807Z,3.90
2018-11-02T07:21:41.037Z,3.90
2018-11-02T07:24:10.413Z,4.00
2018-11-02T07:26:39.622Z,4.10
2018-11-02T07:29:09.639Z,4.20
2018-11-02T07:31:40.700Z,4.30
2018-11-02T07:34:10.094Z,4.30
2018-11-02T07:36:39.297Z,4.40
2018-11-02T07:39:24.729Z,4.40
2018-11-02T07:41:53.893Z,4.50
2018-11-02T07:44:22.766Z,4.60
2018-11-02T07:46:52.113Z,4.70
2018-11-02T07:49:21.291Z,4.80
2018-11-02T07:51:50.542Z,4.90
2018-11-02T07:54:19.832Z,5.00
2018-11-02T07:56:49.107Z,5.10
2018-11-02T07:59:18.308Z,5.30
2018-11-02T08:01:48.296Z,5.60
2018-11-02T08:04:18.416Z,5.80
2018-11-02T08:06:47.645Z,6.00
2018-11-02T08:09:16.817Z,6.20
2018-11-02T08:11:47.031Z,6.40
2018-11-02T08:14:16.343Z,6.90
2018-11-02T08:16:45.632Z,7.40
2018-11-02T08:19:14.813Z,8.00
2018-11-02T08:21:44.037Z,8.60
2018-11-02T08:24:13.412Z,9.10
2018-11-02T08:26:42.632Z,9.40
2018-11-02T08:29:14.377Z,9.60
2018-11-02T08:31:43.817Z,9.90
2018-11-02T08:34:13.044Z,10.40
2018-11-02T08:36:42.436Z,10.60
2018-11-02T08:39:12.686Z,10.50
2018-11-02T08:41:41.900Z,10.30
2018-11-02T08:44:11.247Z,10.10
2018-11-02T08:46:40.860Z,10.00
2018-11-02T08:49:10.063Z,10.00
2018-11-02T08:51:39.281Z,10.40
2018-11-02T08:54:08.508Z,10.60
2018-11-02T08:56:37.715Z,10.80
2018-11-02T08:59:07.229Z,10.80
2018-11-02T09:01:36.364Z,10.80
2018-11-02T09:04:05.734Z,10.80
2018-11-02T09:06:34.931Z,10.70
2018-11-02T09:09:04.059Z,10.70
2018-11-02T09:11:32.898Z,10.50
2018-11-02T09:14:01.758Z,10.40
2018-11-02T09:16:30.654Z,10.40
2018-11-02T09:18:59.459Z,10.30
2018-11-02T09:21:28.834Z,10.20
2018-11-02T09:23:57.660Z,10.20
2018-11-02T09:26:26.932Z,10.10
2018-11-02T09:28:56.493Z,10.00
2018-11-02T09:31:25.705Z,10.00
2018-11-02T09:33:54.538Z,10.00
2018-11-02T09:36:23.409Z,10.00
2018-11-02T09:38:52.286Z,10.00
2018-11-02T09:41:21.164Z,10.00
2018-11-02T09:43:50.053Z,10.00
2018-11-02T09:46:19.034Z,10.00
2018-11-02T09:48:47.909Z,10.00
2018-11-02T09:51:16.866Z,10.00
2018-11-02T09:53:45.799Z,10.00
2018-11-02T09:56:14.710Z,10.00
2018-11-02T09:58:43.568Z,10.10
2018-11-02T10:01:12.498Z,10.10
2018-11-02T10:03:41.391Z,10.20
2018-11-02T10:06:10.281Z,10.20
2018-11-02T10:08:39.162Z,10.20
2018-11-02T10:11:08.082Z,10.20
2018-11-02T10:13:37.097Z,10.30
2018-11-02T10:16:06.500Z,10.30
2018-11-02T10:18:35.384Z,10.40
2018-11-02T10:21:04.338Z,10.60
2018-11-02T10:23:33.199Z,10.80
2018-11-02T10:26:02.224Z,11.00
2018-11-02T10:28:31.309Z,11.30
2018-11-02T10:31:00.323Z,11.50
2018-11-02T10:33:29.347Z,11.70
2018-11-02T10:35:58.612Z,11.90
2018-11-02T10:38:27.618Z,12.10
2018-11-02T10:40:58.068Z,12.20
2018-11-02T10:43:28.708Z,12.30
2018-11-02T10:46:00.019Z,12.40
2018-11-02T10:48:29.955Z,12.40
2018-11-02T10:50:59.084Z,12.50
2018-11-02T10:53:28.591Z,12.60
2018-11-02T10:55:59.643Z,12.60
2018-11-02T10:58:28.609Z,12.60
2018-11-02T11:01:03.157Z,12.70
2018-11-02T11:03:31.920Z,12.70
2018-11-02T11:06:00.806Z,12.80
2018-11-02T11:08:29.927Z,12.70
2018-11-02T11:10:58.854Z,12.70
2018-11-02T11:13:28.092Z,12.80
2018-11-02T11:15:56.788Z,12.80
2018-11-02T11:18:25.681Z,12.80
2018-11-02T11:20:54.652Z,12.70
2018-11-02T11:23:23.636Z,12.70
2018-11-02T11:25:52.534Z,12.60
2018-11-02T11:28:21.557Z,12.70
2018-11-02T11:30:50.520Z,12.70
2018-11-02T11:33:19.526Z,12.70
2018-11-02T11:35:48.641Z,12.70
2018-11-02T11:38:17.569Z,12.70
2018-11-02T11:40:46.565Z,12.70
2018-11-02T11:43:15.458Z,12.60
2018-11-02T11:45:44.533Z,12.60
2018-11-02T11:48:13.548Z,12.50
2018-11-02T11:50:42.542Z,12.40
2018-11-02T11:53:11.682Z,12.40
2018-11-02T11:55:44.724Z,12.40
2018-11-02T11:58:13.664Z,12.30
2018-11-02T12:00:42.672Z,12.30
2018-11-02T12:03:11.572Z,12.30
2018-11-02T12:05:40.391Z,12.30
2018-11-02T12:08:09.472Z,12.30
2018-11-02T12:10:48.179Z,12.30
2018-11-02T12:13:19.440Z,12.40
2018-11-02T12:15:48.617Z,12.50
2018-11-02T12:18:17.689Z,12.60
2018-11-02T12:20:46.806Z,12.70
2018-11-02T12:23:15.846Z,12.90
2018-11-02T12:25:44.759Z,13.00
2018-11-02T12:28:13.761Z,13.20
2018-11-02T12:30:42.778Z,13.20
2018-11-02T12:33:11.858Z,13.30
2018-11-02T12:35:40.996Z,13.30
2018-11-02T12:38:10.165Z,13.20
2018-11-02T12:40:40.219Z,13.10
2018-11-02T12:43:09.454Z,12.90
2018-11-02T12:45:38.656Z,12.90
2018-11-02T12:48:07.672Z,12.80
2018-11-02T12:50:36.935Z,12.80
2018-11-02T12:53:06.180Z,12.80
2018-11-02T12:55:35.217Z,12.70
2018-11-02T12:58:04.070Z,12.60
2018-11-02T13:00:33.080Z,12.60
2018-11-02T13:03:02.437Z,12.70
2018-11-02T13:05:31.836Z,12.80
2018-11-02T13:08:00.862Z,12.90
2018-11-02T13:10:29.916Z,12.90
2018-11-02T13:12:58.795Z,12.90
2018-11-02T13:15:27.944Z,12.90
2018-11-02T13:17:57.231Z,12.90
2018-11-02T13:20:26.565Z,12.80
2018-11-02T13:22:55.878Z,12.70
2018-11-02T13:25:27.982Z,12.60
2018-11-02T13:27:57.219Z,12.60
2018-11-02T13:30:28.486Z,12.50
2018-11-02T13:32:57.303Z,12.50
2018-11-02T13:35:26.233Z,12.60
2018-11-02T13:37:55.088Z,12.60
2018-11-02T13:40:24.128Z,12.60
2018-11-02T13:42:53.150Z,12.60
2018-11-02T13:45:22.233Z,12.60
2018-11-02T13:47:51.195Z,12.60
2018-11-02T13:50:20.654Z,12.70
2018-11-02T13:52:50.627Z,12.80
2018-11-02T13:55:19.619Z,12.80
2018-11-02T13:57:48.544Z,12.90
2018-11-02T14:00:18.470Z,12.90
2018-11-02T14:02:47.393Z,12.90
2018-11-02T14:05:17.222Z,12.80
2018-11-02T14:07:46.127Z,12.80
2018-11-02T14:10:15.124Z,12.70
2018-11-02T14:12:44.152Z,12.70
2018-11-02T14:15:14.376Z,12.60
2018-11-02T14:17:43.771Z,12.60
2018-11-02T14:20:13.386Z,12.50
2018-11-02T14:22:42.423Z,12.40
2018-11-02T14:25:13.955Z,12.40
2018-11-02T14:27:43.000Z,12.40
2018-11-02T14:30:13.673Z,12.30
2018-11-02T14:32:42.702Z,12.30
2018-11-02T14:35:11.594Z,12.30
2018-11-02T14:37:41.417Z,12.20
2018-11-02T14:40:10.898Z,12.10
2018-11-02T14:42:41.053Z,12.00
2018-11-02T14:45:12.065Z,11.90
2018-11-02T14:47:41.151Z,11.80
2018-11-02T14:50:10.639Z,11.70
2018-11-02T14:52:39.749Z,11.50
2018-11-02T14:55:08.960Z,11.40
2018-11-02T14:57:37.962Z,11.30
2018-11-02T15:00:08.220Z,11.10
2018-11-02T15:02:37.113Z,11.00
2018-11-02T15:05:06.709Z,10.80
2018-11-02T15:07:35.803Z,10.70
2018-11-02T15:10:05.264Z,10.50
2018-11-02T15:12:34.215Z,10.40
2018-11-02T15:15:03.247Z,10.20
2018-11-02T15:17:32.341Z,10.10
2018-11-02T15:20:01.194Z,9.90
2018-11-02T15:22:30.199Z,9.70
2018-11-02T15:24:59.239Z,9.60
2018-11-02T15:27:28.080Z,9.40
2018-11-02T15:29:57.033Z,9.30
2018-11-02T15:32:25.906Z,9.20
2018-11-02T15:34:54.763Z,9.10
2018-11-02T15:37:23.759Z,9.00
2018-11-02T15:39:52.663Z,8.80
2018-11-02T15:42:21.556Z,8.70
2018-11-02T15:44:50.726Z,8.50
2018-11-02T15:47:19.430Z,8.40
2018-11-02T15:49:48.355Z,8.20
2018-11-02T15:52:17.243Z,8.10
2018-11-02T15:54:46.177Z,8.00
2018-11-02T15:57:15.065Z,7.90
2018-11-02T15:59:43.993Z,7.70
2018-11-02T16:02:12.957Z,7.60
2018-11-02T16:04:41.856Z,7.50
2018-11-02T16:07:10.792Z,7.40
2018-11-02T16:09:39.616Z,7.40
2018-11-02T16:12:08.566Z,7.30
2018-11-02T16:14:37.382Z,7.20
2018-11-02T16:17:06.415Z,7.20
2018-11-02T16:19:35.335Z,7.10
2018-11-02T16:22:04.311Z,7.00
2018-11-02T16:24:33.286Z,6.90
2018-11-02T16:27:02.202Z,6.80
2018-11-02T16:29:31.101Z,6.70
2018-11-02T16:32:00.620Z,6.60
2018-11-02T16:34:29.533Z,6.50
2018-11-02T16:36:58.370Z,6.40
2018-11-02T16:39:27.247Z,6.40
2018-11-02T16:41:56.175Z,6.30
2018-11-02T16:44:25.679Z,6.20
2018-11-02T16:46:55.122Z,6.10
2018-11-02T16:49:24.697Z,6.00
2018-11-02T16:51:54.198Z,6.00
2018-11-02T16:54:23.314Z,5.90
2018-11-02T16:56:52.483Z,5.80
2018-11-02T16:59:22.962Z,5.80
2018-11-02T17:01:52.049Z,5.70
2018-11-02T17:04:22.356Z,5.70
2018-11-02T17:06:51.512Z,5.60
2018-11-02T17:09:20.575Z,5.60
2018-11-02T17:11:50.052Z,5.60
2018-11-02T17:14:20.552Z,5.50
2018-11-02T17:16:50.277Z,5.50
2018-11-02T17:19:19.859Z,5.50
2018-11-02T17:21:49.243Z,5.50
2018-11-02T17:24:18.391Z,5.50
2018-11-02T17:26:47.447Z,5.50
2018-11-02T17:29:16.592Z,5.50
2018-11-02T17:31:46.783Z,5.40
2018-11-02T17:34:17.243Z,5.30
2018-11-02T17:36:46.290Z,5.20
2018-11-02T17:39:15.366Z,5.20
2018-11-02T17:41:44.372Z,5.20
2018-11-02T17:44:15.125Z,5.10
2018-11-02T17:46:46.405Z,5.00
2018-11-02T17:49:16.791Z,5.00
2018-11-02T17:51:49.042Z,5.00
2018-11-02T17:54:29.527Z,5.00
2018-11-02T17:56:59.754Z,5.00
2018-11-02T17:59:32.090Z,5.00
2018-11-02T18:02:10.182Z,5.00
2018-11-02T18:04:43.838Z,5.00
2018-11-02T18:07:14.589Z,5.10
2018-11-02T18:09:50.583Z,5.20
2018-11-02T18:12:43.947Z,5.20
2018-11-02T18:15:24.004Z,5.20
2018-11-02T18:17:59.969Z,5.10
2018-11-02T18:20:31.614Z,5.10
2018-11-02T18:23:01.289Z,5.10
2018-11-02T18:25:30.349Z,5.00
2018-11-02T18:28:00.518Z,5.00
2018-11-02T18:30:29.476Z,5.00
2018-11-02T18:33:02.391Z,5.00
2018-11-02T18:35:31.448Z,4.90
2018-11-02T18:38:00.212Z,4.80
2018-11-02T18:40:29.137Z,4.80
2018-11-02T18:42:57.993Z,4.80
2018-11-02T18:45:26.842Z,4.80
2018-11-02T18:47:55.814Z,4.70
2018-11-02T18:50:24.774Z,4.70
2018-11-02T18:52:53.663Z,4.70
2018-11-02T18:55:22.512Z,4.70
2018-11-02T18:57:51.463Z,4.60
2018-11-02T19:00:20.361Z,4.50
2018-11-02T19:02:49.234Z,4.50
2018-11-02T19:05:19.090Z,4.40
2018-11-02T19:07:48.014Z,4.30
2018-11-02T19:10:16.902Z,4.30
2018-11-02T19:12:45.953Z,4.20
2018-11-02T19:15:16.149Z,4.20
2018-11-02T19:17:45.314Z,4.20
2018-11-02T19:20:14.720Z,4.10
2018-11-02T19:22:43.575Z,4.10
2018-11-02T19:25:13.662Z,4.10
2018-11-02T19:27:43.193Z,4.00
2018-11-02T19:30:14.089Z,4.00
2018-11-02T19:32:43.141Z,4.00
2018-11-02T19:35:13.044Z,4.00
2018-11-02T19:37:41.881Z,3.90
2018-11-02T19:40:14.309Z,4.00
2018-11-02T19:42:43.280Z,4.00
2018-11-02T19:45:12.682Z,4.00
2018-11-02T19:47:46.754Z,4.00
2018-11-02T19:50:16.812Z,4.10
2018-11-02T19:52:46.010Z,4.10
2018-11-02T19:55:14.978Z,4.10
2018-11-02T19:57:45.068Z,4.10
2018-11-02T20:00:16.371Z,4.20
2018-11-02T20:02:45.281Z,4.20
2018-11-02T20:05:15.784Z,4.20
2018-11-02T20:07:44.853Z,4.30
2018-11-02T20:10:14.457Z,4.30
2018-11-02T20:12:43.790Z,4.30
2018-11-02T20:15:13.525Z,4.30
2018-11-02T20:17:42.686Z,4.30
2018-11-02T20:20:13.050Z,4.30
2018-11-02T20:22:42.042Z,4.30
2018-11-02T20:25:13.005Z,4.30
2018-11-02T20:27:42.599Z,4.30
2018-11-02T20:30:14.695Z,4.30
2018-11-02T20:32:44.688Z,4.30
2018-11-02T20:35:13.744Z,4.30
2018-11-02T20:37:42.632Z,4.30
2018-11-02T20:40:15.254Z,4.30
2018-11-02T20:42:44.914Z,4.30
2018-11-02T20:45:14.717Z,4.30
2018-11-02T20:47:51.124Z,4.30
2018-11-02T20:50:20.061Z,4.30
2018-11-02T20:52:49.191Z,4.30
2018-11-02T20:55:18.373Z,4.30
2018-11-02T20:57:47.724Z,4.30
2018-11-02T21:00:24.604Z,4.30
2018-11-02T21:02:54.780Z,4.30
2018-11-02T21:05:23.788Z,4.30
2018-11-02T21:07:53.137Z,4.30
2018-11-02T21:10:22.654Z,4.30
2018-11-02T21:12:51.674Z,4.20
2018-11-02T21:15:22.911Z,4.20
2018-11-02T21:17:52.285Z,4.20
2018-11-02T21:20:22.520Z,4.20
2018-11-02T21:22:51.294Z,4.20
2018-11-02T21:25:20.143Z,4.20
2018-11-02T21:27:49.408Z,4.20
2018-11-02T21:30:19.586Z,4.20
2018-11-02T21:32:49.106Z,4.20
2018-11-02T21:35:18.497Z,4.20
2018-11-02T21:37:47.795Z,4.20
2018-11-02T21:40:17.940Z,4.20
2018-11-02T21:42:47.107Z,4.20
2018-11-02T21:45:17.277Z,4.10
2018-11-02T21:47:46.331Z,4.10
2018-11-02T21:50:15.592Z,4.20
2018-11-02T21:52:44.481Z,4.10
2018-11-02T21:55:13.616Z,4.10
2018-11-02T21:57:42.495Z,4.10
2018-11-02T22:00:15.601Z,4.10
2018-11-02T22:02:44.701Z,4.10
2018-11-02T22:05:14.210Z,4.00
2018-11-02T22:07:44.534Z,4.10
2018-11-02T22:10:13.843Z,4.00
2018-11-02T22:12:42.695Z,4.10
2018-11-02T22:15:11.650Z,4.10
2018-11-02T22:17:41.117Z,4.10
2018-11-02T22:20:11.542Z,4.00
2018-11-02T22:22:40.662Z,4.00
2018-11-02T22:25:10.606Z,4.10
2018-11-02T22:27:39.568Z,4.00
2018-11-02T22:30:11.621Z,4.00
2018-11-02T22:32:40.710Z,4.00
2018-11-02T22:35:09.682Z,4.00
2018-11-02T22:37:38.524Z,4.00
2018-11-02T22:40:08.584Z,4.00
2018-11-02T22:42:37.425Z,4.00
2018-11-02T22:45:06.768Z,4.10
2018-11-02T22:47:35.609Z,4.10
2018-11-02T22:50:04.639Z,4.10
2018-11-02T22:52:33.595Z,4.20
2018-11-02T22:55:02.452Z,4.20
2018-11-02T22:57:31.294Z,4.20
2018-11-02T23:00:00.141Z,4.30
2018-11-02T23:02:28.961Z,4.30
2018-11-02T23:04:57.823Z,4.30
2018-11-02T23:07:26.687Z,4.40
2018-11-02T23:09:55.551Z,4.40
2018-11-02T23:12:24.475Z,4.40
2018-11-02T23:14:53.305Z,4.40
2018-11-02T23:17:22.156Z,4.50
2018-11-02T23:19:50.960Z,4.50
2018-11-02T23:22:19.832Z,4.50
2018-11-02T23:24:48.660Z,4.50
2018-11-02T23:27:17.568Z,4.50
2018-11-02T23:29:46.369Z,4.50
2018-11-02T23:32:15.203Z,4.50
2018-11-02T23:34:44.100Z,4.50
2018-11-02T23:37:13.031Z,4.50
2018-11-02T23:39:41.948Z,4.40
2018-11-02T23:42:10.853Z,4.40
2018-11-02T23:44:39.666Z,4.40
2018-11-02T23:47:08.487Z,4.40
2018-11-02T23:49:37.370Z,4.40
2018-11-02T23:52:06.238Z,4.40
2018-11-02T23:54:35.120Z,4.40
2018-11-02T23:57:03.942Z,4.40
2018-11-02T23:59:32.830Z,4.30
